Terminal Aerodrome Forecast
Issued by NWS Missoula, MT

Home | Current Version | Previous Version | Text Only | Print | Product List | Glossary On
Versions: 1 2 3 4 5 6 7 8 9 10 11 12 13 14 15 16 17 18 19 20
013
FTUS45 KMSO 111720
TAFGPI
TAF
KGPI 111720Z 1118/1218 00000KT 6SM BCFG FEW009 BKN150
     FM112100 VRB04KT P6SM BKN050
     FM120900 00000KT 5SM -SNRA BR SCT030 OVC050
     FM121100 00000KT 3SM -SNRA BR BKN030 OVC050=

USA.gov is the U.S. government's official web portal to all federal, state and local government web resources and services.